createdAt,value
2017-08-06T00:00:26.449Z,91.20
2017-08-06T00:02:53.922Z,91.40
2017-08-06T00:05:21.397Z,91.20
2017-08-06T00:07:48.870Z,91.30
2017-08-06T00:10:16.360Z,91.30
2017-08-06T00:12:43.888Z,91.30
2017-08-06T00:15:12.232Z,91.80
2017-08-06T00:17:39.811Z,91.50
2017-08-06T00:20:07.283Z,91.30
2017-08-06T00:22:34.839Z,91.20
2017-08-06T00:25:02.306Z,90.90
2017-08-06T00:27:30.569Z,91.10
2017-08-06T00:29:58.032Z,90.80
2017-08-06T00:32:26.274Z,90.80
2017-08-06T00:34:53.732Z,90.80
2017-08-06T00:37:21.195Z,90.90
2017-08-06T00:39:48.676Z,90.80
2017-08-06T00:42:16.956Z,90.90
2017-08-06T00:44:45.180Z,90.80
2017-08-06T00:47:12.729Z,90.80
2017-08-06T00:49:40.288Z,90.80
2017-08-06T00:52:07.748Z,90.80
2017-08-06T00:54:35.228Z,90.70
2017-08-06T00:57:02.688Z,90.80
2017-08-06T00:59:30.141Z,90.80
2017-08-06T01:01:58.544Z,90.90
2017-08-06T01:04:26.120Z,90.90
2017-08-06T01:06:54.343Z,91.30
2017-08-06T01:09:21.815Z,90.90
2017-08-06T01:11:49.344Z,90.80
2017-08-06T01:14:16.799Z,90.80
2017-08-06T01:16:44.284Z,90.80
2017-08-06T01:19:11.759Z,90.80
2017-08-06T01:21:39.212Z,91.00
2017-08-06T01:24:06.674Z,90.90
2017-08-06T01:26:34.123Z,90.90
2017-08-06T01:29:01.580Z,91.00
2017-08-06T01:31:29.051Z,91.00
2017-08-06T01:33:57.271Z,90.90
2017-08-06T01:36:24.735Z,90.90
2017-08-06T01:38:52.227Z,91.00
2017-08-06T01:41:19.793Z,91.00
2017-08-06T01:43:48.048Z,91.10
2017-08-06T01:46:15.521Z,91.00
2017-08-06T01:48:42.970Z,91.10
2017-08-06T01:51:10.471Z,91.10
2017-08-06T01:53:37.991Z,91.10
2017-08-06T01:56:05.552Z,91.10
2017-08-06T01:58:33.011Z,91.20
2017-08-06T02:01:01.282Z,90.80
2017-08-06T02:03:28.747Z,90.90
2017-08-06T02:05:56.298Z,91.00
2017-08-06T02:08:24.627Z,91.10
2017-08-06T02:10:52.100Z,91.00
2017-08-06T02:13:19.591Z,90.90
2017-08-06T02:15:47.822Z,91.20
2017-08-06T02:18:15.343Z,90.80
2017-08-06T02:20:43.558Z,90.80
2017-08-06T02:23:11.040Z,90.80
2017-08-06T02:25:38.490Z,90.80
2017-08-06T02:28:05.994Z,90.90
2017-08-06T02:30:34.262Z,90.80
2017-08-06T02:33:02.487Z,90.70
2017-08-06T02:35:29.967Z,90.70
2017-08-06T02:37:57.452Z,90.80
2017-08-06T02:40:25.716Z,90.90
2017-08-06T02:42:53.951Z,91.00
2017-08-06T02:45:21.431Z,91.00
2017-08-06T02:47:48.899Z,91.00
2017-08-06T02:50:17.171Z,91.60
2017-08-06T02:52:44.735Z,91.20
2017-08-06T02:55:12.963Z,91.20
2017-08-06T02:57:40.427Z,91.20
2017-08-06T03:00:07.908Z,91.10
2017-08-06T03:02:35.371Z,91.20
2017-08-06T03:05:02.835Z,91.20
2017-08-06T03:07:30.286Z,91.40
2017-08-06T03:09:57.870Z,91.20
2017-08-06T03:12:25.352Z,91.00
2017-08-06T03:14:53.674Z,90.90
2017-08-06T03:17:21.136Z,90.90
2017-08-06T03:19:48.736Z,90.80
2017-08-06T03:22:16.222Z,90.90
2017-08-06T03:24:43.711Z,90.70
2017-08-06T03:27:11.986Z,90.80
2017-08-06T03:29:39.460Z,90.80
2017-08-06T03:32:07.690Z,90.70
2017-08-06T03:34:35.152Z,90.70
2017-08-06T03:37:02.619Z,90.70
2017-08-06T03:39:30.087Z,90.70
2017-08-06T03:41:57.828Z,90.60
2017-08-06T03:44:25.287Z,90.90
2017-08-06T03:46:52.755Z,90.50
2017-08-06T03:49:20.210Z,90.30
2017-08-06T03:51:47.680Z,90.40
2017-08-06T03:54:15.957Z,90.20
2017-08-06T03:56:44.220Z,90.10
2017-08-06T03:59:11.735Z,90.10
2017-08-06T04:01:39.179Z,90.20
2017-08-06T04:04:06.655Z,90.20
2017-08-06T04:06:34.165Z,90.30
2017-08-06T04:09:02.393Z,90.20
2017-08-06T04:11:29.894Z,90.20
2017-08-06T04:13:58.157Z,90.20
2017-08-06T04:16:25.636Z,90.00
2017-08-06T04:18:53.878Z,90.00
2017-08-06T04:21:21.364Z,90.00
2017-08-06T04:23:49.622Z,90.10
2017-08-06T04:26:17.093Z,90.10
2017-08-06T04:28:45.355Z,90.20
2017-08-06T04:31:13.591Z,90.30
2017-08-06T04:33:41.090Z,90.20
2017-08-06T04:36:08.639Z,90.40
2017-08-06T04:38:36.206Z,90.50
2017-08-06T04:41:03.675Z,90.60
2017-08-06T04:43:31.947Z,90.90
2017-08-06T04:46:00.207Z,90.90
2017-08-06T04:48:27.674Z,90.80
2017-08-06T04:50:56.011Z,90.70
2017-08-06T04:53:23.521Z,90.80
2017-08-06T04:55:51.774Z,90.60
2017-08-06T04:58:19.270Z,90.60
2017-08-06T05:00:46.806Z,90.60
2017-08-06T05:03:15.039Z,90.90
2017-08-06T05:05:42.532Z,90.60
2017-08-06T05:08:10.807Z,90.70
2017-08-06T05:10:39.199Z,90.60
2017-08-06T05:13:07.450Z,90.30
2017-08-06T05:15:34.916Z,90.30
2017-08-06T05:18:02.437Z,90.30
2017-08-06T05:20:29.894Z,90.00
2017-08-06T05:22:57.349Z,90.00
2017-08-06T05:25:24.828Z,89.90
2017-08-06T05:27:52.294Z,89.30
2017-08-06T05:30:19.760Z,89.20
2017-08-06T05:32:48.036Z,88.50
2017-08-06T05:35:16.284Z,88.10
2017-08-06T05:37:43.754Z,88.00
2017-08-06T05:40:11.321Z,87.80
2017-08-06T05:42:38.787Z,87.90
2017-08-06T05:45:06.240Z,87.70
2017-08-06T05:47:34.500Z,87.80
2017-08-06T05:50:01.973Z,87.70
2017-08-06T05:52:29.561Z,87.60
2017-08-06T05:54:57.074Z,87.50
2017-08-06T05:57:24.580Z,88.00
2017-08-06T05:59:52.037Z,87.90
2017-08-06T06:02:19.563Z,87.70
2017-08-06T06:04:47.824Z,87.50
2017-08-06T06:07:15.285Z,87.50
2017-08-06T06:09:42.751Z,85.00
2017-08-06T06:12:10.992Z,72.20
2017-08-06T06:14:38.463Z,72.10
2017-08-06T06:17:05.927Z,68.90
2017-08-06T06:19:33.389Z,64.40
2017-08-06T06:22:00.842Z,61.50
2017-08-06T06:24:28.323Z,58.90
2017-08-06T06:26:56.572Z,54.50
2017-08-06T06:29:24.048Z,54.50
2017-08-06T06:31:52.283Z,52.70
2017-08-06T06:34:19.759Z,52.60
2017-08-06T06:36:47.215Z,51.50
2017-08-06T06:39:14.691Z,51.00
2017-08-06T06:41:42.926Z,49.30
2017-08-06T06:44:10.375Z,49.10
2017-08-06T06:46:37.857Z,48.50
2017-08-06T06:49:05.329Z,48.10
2017-08-06T06:51:33.621Z,47.60
2017-08-06T06:54:01.894Z,48.10
2017-08-06T06:56:29.363Z,48.00
2017-08-06T06:58:56.820Z,48.70
2017-08-06T07:01:24.322Z,47.70
2017-08-06T07:03:51.804Z,49.70
2017-08-06T07:06:19.270Z,51.80
2017-08-06T07:08:47.545Z,52.50
2017-08-06T07:11:15.016Z,52.50
2017-08-06T07:13:42.506Z,54.20
2017-08-06T07:16:09.976Z,55.40
2017-08-06T07:18:37.439Z,56.50
2017-08-06T07:21:04.918Z,57.00
2017-08-06T07:23:32.401Z,57.10
2017-08-06T07:26:00.735Z,57.40
2017-08-06T07:28:28.414Z,57.40
2017-08-06T07:30:55.893Z,58.40
2017-08-06T07:33:24.126Z,59.30
2017-08-06T07:35:51.606Z,59.30
2017-08-06T07:38:19.083Z,61.50
2017-08-06T07:40:46.619Z,63.00
2017-08-06T07:43:14.080Z,62.30
2017-08-06T07:45:42.392Z,62.30
2017-08-06T07:48:09.904Z,62.20
2017-08-06T07:50:37.372Z,63.70
2017-08-06T07:53:05.612Z,65.40
2017-08-06T07:55:33.299Z,65.40
2017-08-06T07:58:00.752Z,63.40
2017-08-06T08:00:28.225Z,61.50
2017-08-06T08:02:56.450Z,61.90
2017-08-06T08:05:23.911Z,61.90
2017-08-06T08:07:51.404Z,64.00
2017-08-06T08:10:19.649Z,63.60
2017-08-06T08:12:47.098Z,63.50
2017-08-06T08:15:14.563Z,62.50
2017-08-06T08:17:42.051Z,61.70
2017-08-06T08:20:10.372Z,60.40
2017-08-06T08:22:37.872Z,60.30
2017-08-06T08:25:05.340Z,59.20
2017-08-06T08:27:32.907Z,59.70
2017-08-06T08:30:01.152Z,59.50
2017-08-06T08:32:28.625Z,59.50
2017-08-06T08:34:56.295Z,61.30
2017-08-06T08:37:23.799Z,62.90
2017-08-06T08:39:51.273Z,62.80
2017-08-06T08:42:18.760Z,64.90
2017-08-06T08:44:46.444Z,64.00
2017-08-06T08:47:13.902Z,62.00
2017-08-06T08:49:41.770Z,63.00
2017-08-06T08:52:09.999Z,58.90
2017-08-06T08:54:37.462Z,58.80
2017-08-06T08:57:04.927Z,57.70
2017-08-06T08:59:32.500Z,56.10
2017-08-06T09:02:00.752Z,58.70
2017-08-06T09:04:28.213Z,58.10
2017-08-06T09:06:55.683Z,58.40
2017-08-06T09:09:23.150Z,58.70
2017-08-06T09:11:50.608Z,56.30
2017-08-06T09:14:18.076Z,56.90
2017-08-06T09:16:45.626Z,56.60
2017-08-06T09:19:13.883Z,53.70
2017-08-06T09:21:41.382Z,53.70
2017-08-06T09:24:08.891Z,54.20
2017-08-06T09:26:36.356Z,55.70
2017-08-06T09:29:03.816Z,54.30
2017-08-06T09:31:32.092Z,54.50
2017-08-06T09:33:59.661Z,54.40
2017-08-06T09:36:27.879Z,55.20
2017-08-06T09:38:55.383Z,55.20
2017-08-06T09:41:22.827Z,54.20
2017-08-06T09:43:50.287Z,52.90
2017-08-06T09:46:17.763Z,52.50
2017-08-06T09:48:45.992Z,53.70
2017-08-06T09:51:13.451Z,53.70
2017-08-06T09:53:40.911Z,51.70
2017-08-06T09:56:08.367Z,51.20
2017-08-06T09:58:35.832Z,51.50
2017-08-06T10:01:03.312Z,51.40
2017-08-06T10:03:30.795Z,49.10
2017-08-06T10:05:58.246Z,50.70
2017-08-06T10:08:25.711Z,49.50
2017-08-06T10:10:53.167Z,49.40
2017-08-06T10:13:20.741Z,48.30
2017-08-06T10:15:48.210Z,49.00
2017-08-06T10:18:15.699Z,50.20
2017-08-06T10:20:43.155Z,52.30
2017-08-06T10:23:10.740Z,50.80
2017-08-06T10:25:38.975Z,51.70
2017-08-06T10:28:06.437Z,51.70
2017-08-06T10:30:34.135Z,49.60
2017-08-06T10:33:01.587Z,49.40
2017-08-06T10:35:29.050Z,49.70
2017-08-06T10:37:56.524Z,50.40
2017-08-06T10:40:24.043Z,52.50
2017-08-06T10:42:52.330Z,52.60
2017-08-06T10:45:20.567Z,52.00
2017-08-06T10:47:48.046Z,52.00
2017-08-06T10:50:15.662Z,52.80
2017-08-06T10:52:43.134Z,52.30
2017-08-06T10:55:10.596Z,53.80
2017-08-06T10:57:38.075Z,54.70
2017-08-06T11:00:05.688Z,54.50
2017-08-06T11:02:33.144Z,52.30
2017-08-06T11:05:00.659Z,50.70
2017-08-06T11:07:28.928Z,49.30
2017-08-06T11:09:56.380Z,49.20
2017-08-06T11:12:24.253Z,48.40
2017-08-06T11:14:52.518Z,50.70
2017-08-06T11:17:19.985Z,49.90
2017-08-06T11:19:47.492Z,48.90
2017-08-06T11:22:14.948Z,47.90
2017-08-06T11:24:42.415Z,47.90
2017-08-06T11:27:09.883Z,47.30
2017-08-06T11:29:37.373Z,46.80
2017-08-06T11:32:05.642Z,45.10
2017-08-06T11:34:33.191Z,45.00
2017-08-06T11:37:00.651Z,45.80
2017-08-06T11:39:28.127Z,45.40
2017-08-06T11:41:55.625Z,46.40
2017-08-06T11:44:23.094Z,46.60
2017-08-06T11:46:50.588Z,46.40
2017-08-06T11:49:18.821Z,47.70
2017-08-06T11:51:46.358Z,47.60
2017-08-06T11:54:13.810Z,48.60
2017-08-06T11:56:41.300Z,49.00
2017-08-06T11:59:08.776Z,47.30
2017-08-06T12:01:36.233Z,46.50
2017-08-06T12:04:03.726Z,47.20
2017-08-06T12:06:31.955Z,46.90
2017-08-06T12:08:59.423Z,46.70
2017-08-06T12:11:26.875Z,46.20
2017-08-06T12:13:54.908Z,47.60
2017-08-06T12:16:22.370Z,49.50
2017-08-06T12:18:49.839Z,48.50
2017-08-06T12:21:17.310Z,50.30
2017-08-06T12:23:44.776Z,49.60
2017-08-06T12:26:12.235Z,49.70
2017-08-06T12:28:39.704Z,49.80
2017-08-06T12:31:07.971Z,46.50
2017-08-06T12:33:36.264Z,47.00
2017-08-06T12:36:04.492Z,48.20
2017-08-06T12:38:31.976Z,48.20
2017-08-06T12:40:59.436Z,47.70
2017-08-06T12:43:26.902Z,46.60
2017-08-06T12:45:55.127Z,49.40
2017-08-06T12:48:22.588Z,49.30
2017-08-06T12:50:50.064Z,48.00
2017-08-06T12:53:18.353Z,47.10
2017-08-06T12:55:45.810Z,47.30
2017-08-06T12:58:13.278Z,47.40
2017-08-06T13:00:40.807Z,47.90
2017-08-06T13:03:08.287Z,45.90
2017-08-06T13:05:35.784Z,47.20
2017-08-06T13:08:03.227Z,46.70
2017-08-06T13:10:30.698Z,48.40
2017-08-06T13:12:58.458Z,49.10
2017-08-06T13:15:35.869Z,48.40
2017-08-06T13:18:03.456Z,47.20
2017-08-06T13:20:30.932Z,48.10
2017-08-06T13:22:59.231Z,48.80
2017-08-06T13:25:26.683Z,48.20
2017-08-06T13:27:54.181Z,47.50
2017-08-06T13:30:21.647Z,47.00
2017-08-06T13:32:49.120Z,47.10
2017-08-06T13:35:16.584Z,46.30
2017-08-06T13:37:44.101Z,45.70
2017-08-06T13:40:11.569Z,47.50
2017-08-06T13:42:39.044Z,42.90
2017-08-06T13:45:06.588Z,42.70
2017-08-06T13:47:34.069Z,42.70
2017-08-06T13:50:01.535Z,42.70
2017-08-06T13:52:29.816Z,43.40
2017-08-06T13:54:58.038Z,45.30
2017-08-06T13:57:25.496Z,45.30
2017-08-06T13:59:53.053Z,43.40
2017-08-06T14:02:20.503Z,44.00
2017-08-06T14:04:47.986Z,44.70
2017-08-06T14:07:15.460Z,44.60
2017-08-06T14:09:42.911Z,45.20
2017-08-06T14:12:10.367Z,45.20
2017-08-06T14:14:37.883Z,46.80
2017-08-06T14:17:05.344Z,46.40
2017-08-06T14:19:32.805Z,47.00
2017-08-06T14:22:00.321Z,48.70
2017-08-06T14:24:28.601Z,50.10
2017-08-06T14:26:56.082Z,50.10
2017-08-06T14:29:23.762Z,49.10
2017-08-06T14:31:51.211Z,49.10
2017-08-06T14:34:18.705Z,48.10
2017-08-06T14:36:46.169Z,48.30
2017-08-06T14:39:13.626Z,48.50
2017-08-06T14:41:41.901Z,49.80
2017-08-06T14:44:09.458Z,49.20
2017-08-06T14:46:36.915Z,47.80
2017-08-06T14:49:05.147Z,46.50
2017-08-06T14:51:32.633Z,46.40
2017-08-06T14:54:00.339Z,46.40
2017-08-06T14:56:27.875Z,47.40
2017-08-06T14:58:56.171Z,47.20
2017-08-06T15:01:23.669Z,47.10
2017-08-06T15:03:51.124Z,48.50
2017-08-06T15:06:18.591Z,46.20
2017-08-06T15:08:46.378Z,46.20
2017-08-06T15:11:13.834Z,46.30
2017-08-06T15:13:41.286Z,45.00
2017-08-06T15:16:08.807Z,46.10
2017-08-06T15:18:36.296Z,47.70
2017-08-06T15:21:03.760Z,47.20
2017-08-06T15:23:31.242Z,47.10
2017-08-06T15:25:58.691Z,47.70
2017-08-06T15:28:26.928Z,48.10
2017-08-06T15:30:54.400Z,48.10
2017-08-06T15:33:21.892Z,47.80
2017-08-06T15:35:49.349Z,49.40
2017-08-06T15:38:16.875Z,48.60
2017-08-06T15:40:44.332Z,48.40
2017-08-06T15:43:11.785Z,48.40
2017-08-06T15:45:39.255Z,48.00
2017-08-06T15:48:06.719Z,46.80
2017-08-06T15:50:34.174Z,48.10
2017-08-06T15:53:01.657Z,49.00
2017-08-06T15:55:29.133Z,49.80
2017-08-06T15:57:56.588Z,50.00
2017-08-06T16:00:24.060Z,52.20
2017-08-06T16:02:51.516Z,50.90
2017-08-06T16:05:18.977Z,49.80
2017-08-06T16:07:46.453Z,49.60
2017-08-06T16:10:13.910Z,48.40
2017-08-06T16:12:41.400Z,48.20
2017-08-06T16:15:08.875Z,48.20
2017-08-06T16:17:36.335Z,47.80
2017-08-06T16:20:03.796Z,48.10
2017-08-06T16:22:31.251Z,47.60
2017-08-06T16:24:58.714Z,48.40
2017-08-06T16:27:26.180Z,48.40
2017-08-06T16:29:53.740Z,48.70
2017-08-06T16:32:21.243Z,48.50
2017-08-06T16:34:48.700Z,48.10
2017-08-06T16:37:16.932Z,48.30
2017-08-06T16:39:44.472Z,48.30
2017-08-06T16:42:11.947Z,48.20
2017-08-06T16:44:40.707Z,49.00
2017-08-06T16:47:08.180Z,48.90
2017-08-06T16:49:35.680Z,50.00
2017-08-06T16:52:03.922Z,50.80
2017-08-06T16:54:31.383Z,50.70
2017-08-06T16:56:58.856Z,50.60
2017-08-06T16:59:26.314Z,50.90
2017-08-06T17:01:53.832Z,50.80
2017-08-06T17:04:21.284Z,50.90
2017-08-06T17:06:48.768Z,51.90
2017-08-06T17:09:16.235Z,51.80
2017-08-06T17:11:43.703Z,51.70
2017-08-06T17:14:11.178Z,51.50
2017-08-06T17:16:38.648Z,51.50
2017-08-06T17:19:06.161Z,52.20
2017-08-06T17:21:33.623Z,52.40
2017-08-06T17:24:01.088Z,53.30
2017-08-06T17:26:28.555Z,52.80
2017-08-06T17:28:56.011Z,52.70
2017-08-06T17:31:24.234Z,52.40
2017-08-06T17:33:51.752Z,52.30
2017-08-06T17:36:19.217Z,53.00
2017-08-06T17:38:46.687Z,53.60
2017-08-06T17:41:14.187Z,53.70
2017-08-06T17:43:41.659Z,53.40
2017-08-06T17:46:09.909Z,54.30
2017-08-06T17:48:37.435Z,54.60
2017-08-06T17:51:04.956Z,54.30
2017-08-06T17:53:33.171Z,53.80
2017-08-06T17:56:00.672Z,53.80
2017-08-06T17:58:28.127Z,53.40
2017-08-06T18:00:55.599Z,53.40
2017-08-06T18:03:23.083Z,53.00
2017-08-06T18:05:50.555Z,53.80
2017-08-06T18:08:18.064Z,53.70
2017-08-06T18:10:46.342Z,53.50
2017-08-06T18:13:14.640Z,54.30
2017-08-06T18:15:42.126Z,54.30
2017-08-06T18:18:09.622Z,54.30
2017-08-06T18:20:37.085Z,55.00
2017-08-06T18:23:05.354Z,56.40
2017-08-06T18:25:32.816Z,56.30
2017-08-06T18:28:01.042Z,56.30
2017-08-06T18:30:28.499Z,56.10
2017-08-06T18:32:55.996Z,57.10
2017-08-06T18:35:23.450Z,55.80
2017-08-06T18:37:50.913Z,56.30
2017-08-06T18:40:19.162Z,56.40
2017-08-06T18:42:46.647Z,56.20
2017-08-06T18:45:14.150Z,55.30
2017-08-06T18:47:41.634Z,55.70
2017-08-06T18:50:09.120Z,55.10
2017-08-06T18:52:36.600Z,56.00
2017-08-06T18:55:04.060Z,55.70
2017-08-06T18:57:31.540Z,55.60
2017-08-06T18:59:59.011Z,55.50
2017-08-06T19:02:26.603Z,55.30
2017-08-06T19:04:54.076Z,55.30
2017-08-06T19:07:22.653Z,55.00
2017-08-06T19:09:50.900Z,55.10
2017-08-06T19:12:18.387Z,55.30
2017-08-06T19:14:46.637Z,54.90
2017-08-06T19:17:14.192Z,54.80
2017-08-06T19:19:41.781Z,54.30
2017-08-06T19:22:10.025Z,54.60
2017-08-06T19:24:38.131Z,55.00
2017-08-06T19:27:06.375Z,54.20
2017-08-06T19:29:33.855Z,54.20
2017-08-06T19:32:02.134Z,55.30
2017-08-06T19:34:29.629Z,55.30
2017-08-06T19:36:57.141Z,55.30
2017-08-06T19:39:25.391Z,55.50
2017-08-06T19:41:52.871Z,55.90
2017-08-06T19:44:20.364Z,56.60
2017-08-06T19:46:47.835Z,57.00
2017-08-06T19:49:15.393Z,57.90
2017-08-06T19:51:42.876Z,58.50
2017-08-06T19:54:10.451Z,58.30
2017-08-06T19:56:37.931Z,58.60
2017-08-06T19:59:06.425Z,59.80
2017-08-06T20:01:33.908Z,59.80
2017-08-06T20:04:01.390Z,60.30
2017-08-06T20:06:28.867Z,60.50
2017-08-06T20:08:56.340Z,60.40
2017-08-06T20:11:24.572Z,62.40
2017-08-06T20:13:52.023Z,62.40
2017-08-06T20:16:19.511Z,62.60
2017-08-06T20:18:47.864Z,64.70
2017-08-06T20:21:15.354Z,64.60
2017-08-06T20:23:43.587Z,66.10
2017-08-06T20:26:11.073Z,65.90
2017-08-06T20:28:38.559Z,66.10
2017-08-06T20:31:06.816Z,66.40
2017-08-06T20:33:35.043Z,67.00
2017-08-06T20:36:02.645Z,67.00
2017-08-06T20:38:30.162Z,66.30
2017-08-06T20:40:57.668Z,66.10
2017-08-06T20:43:25.914Z,67.30
2017-08-06T20:45:53.749Z,67.80
2017-08-06T20:48:21.554Z,67.30
2017-08-06T20:50:49.189Z,68.50
2017-08-06T20:53:16.698Z,68.30
2017-08-06T20:55:44.972Z,70.00
2017-08-06T20:58:13.257Z,71.50
2017-08-06T21:00:44.188Z,69.90
2017-08-06T21:03:12.803Z,69.90
2017-08-06T21:05:41.115Z,70.00
2017-08-06T21:08:09.488Z,71.00
2017-08-06T21:10:37.104Z,71.00
2017-08-06T21:13:04.641Z,71.50
2017-08-06T21:15:33.065Z,71.20
2017-08-06T21:18:01.598Z,71.20
2017-08-06T21:20:30.089Z,71.10
2017-08-06T21:22:58.498Z,71.10
2017-08-06T21:25:26.162Z,71.10
2017-08-06T21:27:53.661Z,71.80
2017-08-06T21:30:21.132Z,70.30
2017-08-06T21:32:49.412Z,71.40
2017-08-06T21:35:17.636Z,72.30
2017-08-06T21:37:45.119Z,72.20
2017-08-06T21:40:12.603Z,72.50
2017-08-06T21:42:42.975Z,73.00
2017-08-06T21:45:10.668Z,73.00
2017-08-06T21:47:38.839Z,73.50
2017-08-06T21:50:06.467Z,73.10
2017-08-06T21:52:34.669Z,72.90
2017-08-06T21:55:02.377Z,73.30
2017-08-06T21:57:29.823Z,72.80
2017-08-06T21:59:57.340Z,73.70
2017-08-06T22:02:24.796Z,73.30
2017-08-06T22:04:52.271Z,73.70
2017-08-06T22:07:19.830Z,73.30
2017-08-06T22:09:47.293Z,73.30
2017-08-06T22:12:15.554Z,74.60
2017-08-06T22:14:43.128Z,74.60
2017-08-06T22:17:11.392Z,75.10
2017-08-06T22:19:38.871Z,75.10
2017-08-06T22:22:07.123Z,75.70
2017-08-06T22:24:34.611Z,75.60
2017-08-06T22:27:02.081Z,76.00
2017-08-06T22:29:29.605Z,76.10
2017-08-06T22:31:57.836Z,76.70
2017-08-06T22:34:25.352Z,76.20
2017-08-06T22:36:53.616Z,76.20
2017-08-06T22:39:21.855Z,76.30
2017-08-06T22:41:49.302Z,76.30
2017-08-06T22:44:16.807Z,76.90
2017-08-06T22:46:45.035Z,75.80
2017-08-06T22:49:12.579Z,75.70
2017-08-06T22:51:40.049Z,75.80
2017-08-06T22:54:07.549Z,75.90
2017-08-06T22:56:35.771Z,76.60
2017-08-06T22:59:03.255Z,76.60
2017-08-06T23:01:30.741Z,77.40
2017-08-06T23:03:59.016Z,78.20
2017-08-06T23:06:27.257Z,78.70
2017-08-06T23:08:54.756Z,78.60
2017-08-06T23:11:22.979Z,79.60
2017-08-06T23:13:50.447Z,79.60
2017-08-06T23:16:17.907Z,80.00
2017-08-06T23:18:45.369Z,80.50
2017-08-06T23:21:12.963Z,81.10
2017-08-06T23:23:41.328Z,82.10
2017-08-06T23:26:09.561Z,82.30
2017-08-06T23:28:37.063Z,82.30
2017-08-06T23:31:05.283Z,82.90
2017-08-06T23:33:32.747Z,82.80
2017-08-06T23:36:00.239Z,82.90
2017-08-06T23:38:27.695Z,82.90
2017-08-06T23:40:55.171Z,83.10
2017-08-06T23:43:23.423Z,83.20
2017-08-06T23:45:50.883Z,83.10
2017-08-06T23:48:18.343Z,83.00
2017-08-06T23:50:46.584Z,83.10
2017-08-06T23:53:14.101Z,83.10
2017-08-06T23:55:41.596Z,83.30
2017-08-06T23:58:09.093Z,83.30
